Time;durP1;ratioP1;P1;durP2;ratioP2;P2;SDS_P1;SDS_P2;PMS_P1;PMS_P2;Temp;Humidity;BMP_temperature;BMP_pressure;BME280_temperature;BME280_humidity;BME280_pressure;Samples;Min_cycle;Max_cycle;Signal;HPM_P1;HPM_P2
2022/05/21 00:01:08;;;;;;;5.13;4.65;;;15.50;99.90;;;;;;4938693;29;20609;-71
2022/05/21 00:03:34;;;;;;;5.05;4.55;;;15.50;99.90;;;;;;4938099;29;20198;-71
2022/05/21 00:05:59;;;;;;;4.90;4.60;;;15.50;99.90;;;;;;4938971;29;20182;-71
2022/05/21 00:08:25;;;;;;;5.35;4.95;;;15.40;99.90;;;;;;4939592;29;20178;-71
2022/05/21 00:10:51;;;;;;;5.20;4.80;;;15.40;99.90;;;;;;4937589;29;20273;-71
2022/05/21 00:13:17;;;;;;;5.72;5.22;;;15.30;99.90;;;;;;4937806;29;20550;-71
2022/05/21 00:15:44;;;;;;;5.78;5.38;;;15.20;99.90;;;;;;4937719;29;20293;-71
2022/05/21 00:18:09;;;;;;;6.03;5.18;;;15.20;99.90;;;;;;4937778;29;20249;-71
2022/05/21 00:20:47;;;;;;;5.70;5.30;;;15.20;99.90;;;;;;4938379;29;20186;-71
2022/05/21 00:23:17;;;;;;;5.90;5.35;;;15.10;99.90;;;;;;4938389;29;20218;-71
2022/05/21 00:25:45;;;;;;;5.00;4.60;;;15.00;99.90;;;;;;4938894;29;20226;-71
2022/05/21 00:28:10;;;;;;;5.00;4.70;;;15.00;99.90;;;;;;4938617;29;20182;-71
2022/05/21 00:30:39;;;;;;;4.85;4.55;;;14.90;99.90;;;;;;4937616;29;20236;-71
2022/05/21 00:33:06;;;;;;;4.85;4.43;;;14.90;99.90;;;;;;4938247;29;20202;-71
2022/05/21 00:35:32;;;;;;;4.65;4.32;;;14.90;99.90;;;;;;4937542;29;20206;-71
2022/05/21 00:37:58;;;;;;;6.25;4.50;;;14.90;99.90;;;;;;4938311;29;20205;-71
2022/05/21 00:40:24;;;;;;;6.43;4.00;;;14.90;99.90;;;;;;4937986;29;20186;-71
2022/05/21 00:42:50;;;;;;;4.07;3.60;;;14.90;99.90;;;;;;4937350;29;20202;-71
2022/05/21 00:45:17;;;;;;;11.35;3.60;;;15.00;99.90;;;;;;4937175;29;20179;-71
2022/05/21 00:47:43;;;;;;;3.60;3.40;;;15.10;99.90;;;;;;4937270;29;20277;-71
2022/05/21 00:50:11;;;;;;;3.75;3.55;;;15.10;99.90;;;;;;4937027;29;20210;-71
2022/05/21 00:52:39;;;;;;;5.10;3.95;;;15.20;99.90;;;;;;4936378;29;20281;-71
2022/05/21 00:55:13;;;;;;;3.60;3.40;;;15.20;99.90;;;;;;4938439;29;20300;-71
2022/05/21 00:57:47;;;;;;;4.53;4.00;;;15.10;99.90;;;;;;4938436;29;20545;-71
2022/05/21 01:00:20;;;;;;;3.90;3.70;;;15.00;99.90;;;;;;4937254;29;20238;-71
2022/05/21 01:02:52;;;;;;;5.22;4.05;;;14.90;99.90;;;;;;4937346;29;20194;-71
2022/05/21 01:05:21;;;;;;;4.00;3.70;;;14.80;99.90;;;;;;4937038;29;20171;-72
2022/05/21 01:07:50;;;;;;;4.40;4.00;;;14.70;99.90;;;;;;4936993;29;20209;-72
2022/05/21 01:10:20;;;;;;;4.50;4.20;;;14.70;99.90;;;;;;4937818;29;20186;-72
2022/05/21 01:12:49;;;;;;;4.38;4.07;;;14.60;99.90;;;;;;4936999;29;20206;-70
2022/05/21 01:15:19;;;;;;;4.20;3.90;;;14.60;99.90;;;;;;4938299;29;20178;-70
2022/05/21 01:17:46;;;;;;;5.07;3.95;;;14.50;99.90;;;;;;4937114;29;20233;-71
2022/05/21 01:20:16;;;;;;;6.68;4.47;;;14.40;99.90;;;;;;4936548;29;20265;-71
2022/05/21 01:22:49;;;;;;;5.05;4.25;;;14.30;99.90;;;;;;4937265;29;20206;-71
2022/05/21 01:25:23;;;;;;;4.30;4.03;;;14.30;99.90;;;;;;4937443;29;20183;-71
2022/05/21 01:27:51;;;;;;;4.70;4.30;;;14.20;99.90;;;;;;4938038;29;20261;-71
2022/05/21 01:30:20;;;;;;;5.68;4.57;;;14.20;99.90;;;;;;4936760;29;20190;-71
2022/05/21 01:32:48;;;;;;;4.65;4.25;;;14.20;99.90;;;;;;4937915;29;20202;-71
2022/05/21 01:35:15;;;;;;;4.85;4.30;;;14.10;99.90;;;;;;4937519;29;20277;-71
2022/05/21 01:37:41;;;;;;;4.45;4.15;;;14.10;99.90;;;;;;4937140;29;20198;-71
2022/05/21 01:40:09;;;;;;;4.97;4.60;;;14.10;99.90;;;;;;4936447;29;20273;-71
2022/05/21 01:42:35;;;;;;;5.70;5.13;;;14.00;99.90;;;;;;4936609;29;20209;-71
2022/05/21 01:48:19;;;;;;;6.10;5.50;;;14.00;99.90;;;;;;4937497;29;20241;-71
2022/05/21 01:50:45;;;;;;;5.50;5.10;;;14.10;99.90;;;;;;4936698;29;20205;-71
2022/05/21 01:53:11;;;;;;;8.32;5.10;;;14.10;99.90;;;;;;4935403;29;20386;-71
2022/05/21 01:55:40;;;;;;;4.97;4.63;;;14.10;99.90;;;;;;4935541;29;20201;-71
2022/05/21 01:58:06;;;;;;;5.45;4.97;;;14.10;99.90;;;;;;4935540;29;20206;-71
2022/05/21 02:00:32;;;;;;;7.63;5.15;;;14.10;99.90;;;;;;4935505;29;20184;-71
2022/05/21 02:02:58;;;;;;;5.35;5.03;;;14.00;99.90;;;;;;4936782;29;20285;-71
2022/05/21 02:05:24;;;;;;;6.75;5.05;;;13.80;99.90;;;;;;4939327;29;20177;-71
2022/05/21 02:07:49;;;;;;;8.13;4.50;;;13.80;99.90;;;;;;4939415;29;20301;-71
2022/05/21 02:10:15;;;;;;;6.15;5.07;;;13.70;99.90;;;;;;4939506;29;20186;-71
2022/05/21 02:12:40;;;;;;;5.90;5.25;;;13.70;99.90;;;;;;4939784;29;20210;-71
2022/05/21 02:15:06;;;;;;;5.88;5.47;;;13.60;99.90;;;;;;4939049;29;20182;-71
2022/05/21 02:17:33;;;;;;;6.88;5.20;;;13.50;99.90;;;;;;4938644;29;20278;-71
2022/05/21 02:19:59;;;;;;;6.88;5.70;;;13.50;99.90;;;;;;4939858;29;20181;-71
2022/05/21 02:22:26;;;;;;;6.05;5.45;;;13.50;99.90;;;;;;4939201;29;20194;-71
2022/05/21 02:24:51;;;;;;;6.40;5.90;;;13.50;99.90;;;;;;4938913;29;20273;-71
2022/05/21 02:27:17;;;;;;;6.85;6.28;;;13.50;99.90;;;;;;4939122;29;20233;-71
2022/05/21 02:29:43;;;;;;;7.55;5.97;;;13.50;99.90;;;;;;4938771;29;20405;-71
2022/05/21 02:32:10;;;;;;;6.60;6.00;;;13.40;99.90;;;;;;4939510;29;20216;-71
2022/05/21 02:34:36;;;;;;;9.15;6.95;;;13.30;99.90;;;;;;4938629;29;20190;-71
2022/05/21 02:39:45;;;;;;;6.90;6.15;;;13.30;99.90;;;;;;4939777;29;20190;-71
2022/05/21 02:44:56;;;;;;;6.40;5.88;;;13.30;99.90;;;;;;4939634;29;20189;-71
2022/05/21 02:47:23;;;;;;;6.47;5.97;;;13.30;99.90;;;;;;4939273;29;20186;-71
2022/05/21 02:49:48;;;;;;;6.60;6.10;;;13.30;99.90;;;;;;4938910;29;20183;-71
2022/05/21 02:52:15;;;;;;;6.95;6.30;;;13.20;99.90;;;;;;4937938;29;20206;-71
2022/05/21 02:54:41;;;;;;;6.88;6.18;;;13.10;99.90;;;;;;4938384;29;20553;-71
2022/05/21 02:57:09;;;;;;;7.43;6.75;;;13.10;99.90;;;;;;4938211;29;20214;-71
2022/05/21 02:59:34;;;;;;;6.93;6.38;;;13.10;99.90;;;;;;4937873;29;20200;-71
2022/05/21 03:02:00;;;;;;;6.93;6.22;;;13.10;99.90;;;;;;4937776;29;20194;-70
2022/05/21 03:04:25;;;;;;;6.85;6.22;;;13.20;99.90;;;;;;4938645;29;20179;-70
2022/05/21 03:06:51;;;;;;;6.90;6.30;;;13.10;99.90;;;;;;4937880;29;20178;-70
2022/05/21 03:12:01;;;;;;;6.93;6.28;;;13.10;99.90;;;;;;4939479;29;20736;-70
2022/05/21 03:14:26;;;;;;;5.78;5.28;;;13.00;99.90;;;;;;4937609;29;20178;-70
2022/05/21 03:16:59;;;;;;;6.50;5.90;;;13.00;99.90;;;;;;4937187;29;20644;-70
2022/05/21 03:19:24;;;;;;;7.10;6.40;;;12.90;99.90;;;;;;4938393;29;20590;-70
2022/05/21 03:21:50;;;;;;;6.55;5.95;;;12.80;99.90;;;;;;4938910;29;20182;-70
2022/05/21 03:24:15;;;;;;;7.10;6.53;;;12.80;99.90;;;;;;4937537;29;20705;-70
2022/05/21 03:26:41;;;;;;;7.18;6.28;;;12.80;99.90;;;;;;4938607;29;20179;-70
2022/05/21 03:29:07;;;;;;;7.20;6.55;;;12.90;99.90;;;;;;4937368;29;20187;-70
2022/05/21 03:31:32;;;;;;;6.53;5.93;;;12.90;99.90;;;;;;4937325;29;20193;-70
2022/05/21 03:33:58;;;;;;;8.98;6.60;;;13.00;99.90;;;;;;4937237;29;20198;-70
2022/05/21 03:36:24;;;;;;;6.97;6.38;;;13.00;99.90;;;;;;4937138;29;20225;-70
2022/05/21 03:38:50;;;;;;;6.18;5.57;;;13.10;99.90;;;;;;4937412;29;20254;-70
2022/05/21 03:41:16;;;;;;;8.68;5.40;;;13.20;99.90;;;;;;4937254;29;20182;-70
2022/05/21 03:43:43;;;;;;;8.43;5.10;;;13.20;99.90;;;;;;4937345;29;20201;-70
2022/05/21 03:46:08;;;;;;;5.97;5.45;;;13.20;99.90;;;;;;4938271;29;20178;-70
2022/05/21 03:48:34;;;;;;;8.25;5.07;;;13.20;99.90;;;;;;4937072;29;20197;-70
2022/05/21 03:50:59;;;;;;;5.82;5.30;;;13.20;99.90;;;;;;4936972;29;20182;-70
2022/05/21 03:53:26;;;;;;;6.95;5.50;;;13.30;99.90;;;;;;4936832;29;20241;-70
2022/05/21 03:55:53;;;;;;;6.20;5.70;;;13.30;99.90;;;;;;4938058;29;20238;-70
2022/05/21 03:58:19;;;;;;;6.18;5.57;;;13.30;99.90;;;;;;4937124;29;20265;-70
2022/05/21 04:00:45;;;;;;;6.28;5.40;;;13.30;99.90;;;;;;4936824;29;20186;-70
2022/05/21 04:03:10;;;;;;;5.88;4.65;;;13.30;99.90;;;;;;4936742;29;20293;-70
2022/05/21 04:05:36;;;;;;;6.15;5.07;;;13.30;99.90;;;;;;4936719;29;20185;-70
2022/05/21 04:08:03;;;;;;;4.97;4.57;;;13.30;99.90;;;;;;4937114;29;20254;-70
2022/05/21 04:10:28;;;;;;;4.93;4.53;;;13.10;99.90;;;;;;4936648;29;20312;-70
2022/05/21 04:12:54;;;;;;;5.03;4.63;;;13.00;99.90;;;;;;4936770;29;20229;-71
2022/05/21 04:15:20;;;;;;;7.40;5.32;;;13.00;99.90;;;;;;4936537;29;20185;-70
2022/05/21 04:17:45;;;;;;;6.75;4.70;;;12.90;99.90;;;;;;4936519;29;20272;-70
2022/05/21 04:20:14;;;;;;;6.97;4.93;;;12.80;99.90;;;;;;4936518;29;20186;-70
2022/05/21 04:22:40;;;;;;;6.80;5.50;;;12.80;99.90;;;;;;4936321;29;20712;-70
2022/05/21 04:25:06;;;;;;;7.28;5.22;;;12.90;99.90;;;;;;4937243;29;20186;-70
2022/05/21 04:27:38;;;;;;;6.15;5.55;;;12.90;99.90;;;;;;4935320;29;20186;-70
2022/05/21 04:30:06;;;;;;;6.13;4.97;;;12.90;99.90;;;;;;4937314;29;20220;-70
2022/05/21 04:32:32;;;;;;;5.50;5.00;;;12.90;99.90;;;;;;4936045;29;20353;-70
2022/05/21 04:34:57;;;;;;;7.07;5.05;;;12.90;99.90;;;;;;4937329;29;20206;-70
2022/05/21 04:37:23;;;;;;;5.28;4.78;;;12.90;99.90;;;;;;4936823;29;20266;-70
2022/05/21 04:39:48;;;;;;;5.05;4.63;;;12.90;99.90;;;;;;4936030;29;20559;-70
2022/05/21 04:42:14;;;;;;;5.30;4.90;;;13.00;99.90;;;;;;4936817;29;20209;-70
2022/05/21 04:44:40;;;;;;;4.80;4.40;;;13.00;99.90;;;;;;4936272;29;20178;-70
2022/05/21 04:47:06;;;;;;;5.05;4.70;;;13.10;99.90;;;;;;4937095;29;20216;-70
2022/05/21 04:49:31;;;;;;;6.90;4.60;;;13.20;99.90;;;;;;4937400;29;20185;-70
2022/05/21 04:51:57;;;;;;;5.75;5.25;;;13.30;99.90;;;;;;4937028;29;20552;-70
2022/05/21 04:54:23;;;;;;;5.50;4.90;;;13.40;99.90;;;;;;4936178;29;20185;-69
2022/05/21 04:56:49;;;;;;;9.98;5.38;;;13.40;99.90;;;;;;4936980;29;20182;-69
2022/05/21 04:59:14;;;;;;;7.57;5.35;;;13.50;99.90;;;;;;4936018;29;20544;-69
2022/05/21 05:01:41;;;;;;;7.65;5.57;;;13.50;99.90;;;;;;4935521;29;20269;-69
2022/05/21 05:04:10;;;;;;;10.50;5.60;;;13.60;99.90;;;;;;4935615;29;20210;-69
2022/05/21 05:06:36;;;;;;;9.60;5.57;;;13.70;99.90;;;;;;4935869;29;20178;-69
2022/05/21 05:09:02;;;;;;;8.15;5.82;;;13.70;99.90;;;;;;4935883;29;20185;-69
2022/05/21 05:11:28;;;;;;;5.95;5.35;;;13.80;99.90;;;;;;4935542;29;20174;-69
2022/05/21 05:13:54;;;;;;;5.38;4.88;;;13.80;99.90;;;;;;4936577;29;20216;-70
2022/05/21 05:16:20;;;;;;;6.72;4.65;;;13.80;99.90;;;;;;4935789;29;20206;-70
2022/05/21 05:18:46;;;;;;;5.50;4.10;;;13.80;99.90;;;;;;4935434;29;20693;-70
2022/05/21 05:21:11;;;;;;;6.30;4.00;;;13.90;99.90;;;;;;4936630;29;20551;-70
2022/05/21 05:23:37;;;;;;;4.13;3.60;;;13.90;99.90;;;;;;4935552;29;20194;-70
2022/05/21 05:26:02;;;;;;;4.93;3.83;;;13.90;99.90;;;;;;4935335;29;20182;-70
2022/05/21 05:28:29;;;;;;;5.50;3.70;;;14.00;99.90;;;;;;4935309;29;20178;-70
2022/05/21 05:30:55;;;;;;;5.05;3.85;;;14.00;99.40;;;;;;4936473;29;20641;-70
2022/05/21 05:33:21;;;;;;;3.58;3.28;;;14.10;99.90;;;;;;4936443;29;20285;-70
2022/05/21 05:35:54;;;;;;;6.78;4.18;;;14.20;99.30;;;;;;4935151;29;20273;-70
2022/05/21 05:38:20;;;;;;;5.15;3.78;;;14.20;97.50;;;;;;4936000;29;20205;-70
2022/05/21 05:40:49;;;;;;;3.90;3.50;;;14.20;98.50;;;;;;4935137;29;20201;-70
2022/05/21 05:43:22;;;;;;;11.80;4.10;;;14.20;99.00;;;;;;4934934;29;20704;-70
2022/05/21 05:45:53;;;;;;;5.60;4.00;;;14.50;98.90;;;;;;4935086;29;20170;-70
2022/05/21 05:48:19;;;;;;;3.67;3.30;;;14.50;98.00;;;;;;4935049;29;20250;-70
2022/05/21 05:50:46;;;;;;;5.63;3.63;;;14.50;97.40;;;;;;4935411;29;20238;-70
2022/05/21 05:53:12;;;;;;;3.75;3.17;;;14.60;98.10;;;;;;4935381;29;20202;-70
2022/05/21 05:55:41;;;;;;;3.67;3.22;;;14.70;97.10;;;;;;4936492;29;20613;-70
2022/05/21 06:00:52;;;;;;;3.90;3.40;;;14.90;96.70;;;;;;4936789;29;20367;-70
2022/05/21 06:03:20;;;;;;;6.97;3.28;;;15.30;97.10;;;;;;4936138;29;20218;-70
2022/05/21 06:05:45;;;;;;;6.20;3.10;;;15.70;96.20;;;;;;4935322;29;20182;-70
2022/05/21 06:08:11;;;;;;;5.28;3.30;;;16.00;94.40;;;;;;4936119;29;20178;-70
2022/05/21 06:10:40;;;;;;;3.55;2.80;;;16.30;92.30;;;;;;4934799;29;20273;-70
2022/05/21 06:13:06;;;;;;;3.65;3.25;;;16.40;92.10;;;;;;4935090;29;20206;-70
2022/05/21 06:15:33;;;;;;;3.80;2.88;;;16.60;91.50;;;;;;4935059;29;20281;-71
2022/05/21 06:17:58;;;;;;;5.68;2.65;;;17.00;90.60;;;;;;4934693;29;20214;-70
2022/05/21 06:20:26;;;;;;;3.38;2.70;;;17.50;88.90;;;;;;4935015;29;20182;-70
2022/05/21 06:22:53;;;;;;;4.50;2.50;;;17.50;87.30;;;;;;4935872;29;20213;-70
2022/05/21 06:25:21;;;;;;;4.93;2.63;;;17.70;87.10;;;;;;4935387;29;20181;-70
2022/05/21 06:27:50;;;;;;;3.33;2.60;;;17.50;85.50;;;;;;4935917;29;20167;-75
2022/05/21 06:30:22;;;;;;;4.53;2.47;;;17.40;87.10;;;;;;4935177;29;20181;-69
2022/05/21 06:32:48;;;;;;;3.28;2.80;;;17.50;86.70;;;;;;4935436;29;20198;-69
2022/05/21 06:35:15;;;;;;;5.63;2.65;;;17.00;86.20;;;;;;4935592;29;20197;-70
2022/05/21 06:37:41;;;;;;;7.68;2.55;;;16.70;89.30;;;;;;4935548;29;20207;-70
2022/05/21 06:40:08;;;;;;;7.93;2.35;;;16.80;89.60;;;;;;4935525;29;20229;-70
2022/05/21 06:42:33;;;;;;;14.88;3.28;;;17.20;89.20;;;;;;4936185;29;20269;-70
2022/05/21 06:44:59;;;;;;;7.50;2.60;;;17.60;88.90;;;;;;4935438;29;20648;-70
2022/05/21 06:47:25;;;;;;;7.28;2.65;;;17.90;85.90;;;;;;4935719;29;20185;-70
2022/05/21 06:49:56;;;;;;;10.13;3.13;;;18.00;86.40;;;;;;4935687;29;20264;-70
2022/05/21 06:52:30;;;;;;;5.00;2.58;;;18.40;85.60;;;;;;4938878;29;20213;-72
2022/05/21 06:54:56;;;;;;;7.70;4.47;;;18.40;83.90;;;;;;4938138;29;20170;-72
2022/05/21 06:57:51;;;;;;;7.65;5.00;;;18.30;84.40;;;;;;4937920;29;20214;-72
2022/05/21 07:00:19;;;;;;;10.07;7.28;;;18.10;84.60;;;;;;4937922;29;20179;-72
2022/05/21 07:02:57;;;;;;;16.02;3.28;;;18.00;84.40;;;;;;4939014;29;20209;-72
2022/05/21 07:08:23;;;;;;;4.47;2.28;;;17.80;84.20;;;;;;4939581;29;20173;-70
2022/05/21 07:10:49;;;;;;;3.50;2.53;;;17.70;83.30;;;;;;4938076;29;20193;-70
2022/05/21 07:13:16;;;;;;;11.65;7.35;;;17.30;85.30;;;;;;4937597;29;20206;-70
2022/05/21 07:15:42;;;;;;;4.57;2.70;;;17.30;85.90;;;;;;4937910;29;20190;-70
2022/05/21 07:18:08;;;;;;;5.38;2.10;;;17.10;86.00;;;;;;4939036;29;20198;-70
2022/05/21 07:20:40;;;;;;;2.63;1.80;;;17.10;86.50;;;;;;4938758;29;20191;-70
2022/05/21 07:23:05;;;;;;;4.95;1.85;;;17.00;86.50;;;;;;4938067;29;20204;-70
2022/05/21 07:25:31;;;;;;;6.78;2.88;;;16.80;84.80;;;;;;4938559;29;20163;-70
2022/05/21 07:28:00;;;;;;;5.65;2.67;;;16.60;85.70;;;;;;4938283;29;20192;-70
2022/05/21 07:30:27;;;;;;;3.85;2.10;;;16.60;86.50;;;;;;4937430;29;20178;-70
2022/05/21 07:32:55;;;;;;;4.30;2.00;;;16.90;86.80;;;;;;4937464;29;20725;-70
2022/05/21 07:35:29;;;;;;;5.25;2.80;;;17.00;86.40;;;;;;4937289;29;20244;-71
2022/05/21 07:38:07;;;;;;;7.38;3.00;;;17.10;86.00;;;;;;4938025;29;20217;-70
2022/05/21 07:40:33;;;;;;;3.63;1.80;;;17.10;87.20;;;;;;4938385;29;20222;-71
2022/05/21 07:42:59;;;;;;;3.92;1.88;;;17.00;86.70;;;;;;4936062;29;20198;-70
2022/05/21 07:45:24;;;;;;;5.47;1.70;;;17.00;89.10;;;;;;4937644;29;20642;-70
2022/05/21 07:47:50;;;;;;;3.83;1.55;;;17.00;86.70;;;;;;4937313;29;20210;-70
2022/05/21 07:50:18;;;;;;;4.70;2.67;;;17.00;86.40;;;;;;4937784;29;20179;-70
2022/05/21 07:52:53;;;;;;;2.28;1.65;;;17.10;87.10;;;;;;4937353;29;20736;-70
2022/05/21 07:55:19;;;;;;;4.28;1.42;;;17.10;88.00;;;;;;4937777;29;20181;-70
2022/05/21 07:57:45;;;;;;;8.38;1.60;;;17.30;88.00;;;;;;4938873;29;20209;-70
2022/05/21 08:00:17;;;;;;;2.78;1.60;;;17.10;86.80;;;;;;4938984;29;20654;-70
2022/05/21 08:02:46;;;;;;;6.57;1.67;;;17.00;85.00;;;;;;4936638;29;20194;-69
2022/05/21 08:05:13;;;;;;;8.93;1.80;;;16.80;86.50;;;;;;4936342;29;20193;-69
2022/05/21 08:07:38;;;;;;;9.05;1.92;;;16.60;87.50;;;;;;4937186;29;20190;-69
2022/05/21 08:10:07;;;;;;;10.75;1.92;;;16.60;88.30;;;;;;4935998;29;20186;-70
2022/05/21 08:12:32;;;;;;;5.57;1.90;;;17.00;88.70;;;;;;4936038;29;20209;-70
2022/05/21 08:14:58;;;;;;;5.90;2.00;;;17.10;87.50;;;;;;4939591;29;20521;-70
2022/05/21 08:17:23;;;;;;;7.43;1.67;;;17.10;87.40;;;;;;4937739;29;20242;-71
2022/05/21 08:19:58;;;;;;;2.90;1.60;;;17.20;90.00;;;;;;4937664;29;20269;-71
2022/05/21 08:27:52;;;;;;;4.10;1.85;;;17.40;86.50;;;;;;4938115;29;20709;-70
2022/05/21 08:33:40;;;;;;;7.75;4.20;;;17.30;87.40;;;;;;4937622;29;20193;-70
2022/05/21 08:36:05;;;;;;;2.47;1.67;;;16.90;87.60;;;;;;4938669;29;20198;-71
2022/05/21 08:38:41;;;;;;;2.78;1.98;;;17.00;88.20;;;;;;4937628;29;20202;-70
2022/05/21 08:44:46;;;;;;;4.47;1.83;;;17.40;88.60;;;;;;4937466;29;20157;-70
2022/05/21 08:47:20;;;;;;;2.03;1.70;;;17.60;84.70;;;;;;4935894;29;20324;-74
2022/05/21 08:50:01;;;;;;;4.05;1.83;;;17.60;85.20;;;;;;4937033;29;20190;-70
2022/05/21 08:52:49;;;;;;;4.65;1.52;;;17.80;83.80;;;;;;4936998;29;20293;-70
2022/05/21 08:55:19;;;;;;;2.88;1.45;;;17.90;83.40;;;;;;4937792;29;20174;-70
2022/05/21 08:57:48;;;;;;;5.30;1.67;;;18.40;83.90;;;;;;4939189;29;20202;-72
2022/05/21 09:00:29;;;;;;;6.68;1.67;;;18.70;80.80;;;;;;4936743;29;20178;-69
2022/05/21 09:02:55;;;;;;;4.85;1.33;;;18.80;78.60;;;;;;4939476;29;20198;-71
2022/05/21 09:05:22;;;;;;;2.38;1.40;;;18.80;78.80;;;;;;4939785;29;20183;-71
2022/05/21 09:07:50;;;;;;;1.65;1.55;;;18.90;77.20;;;;;;4939555;29;20177;-71
2022/05/21 09:10:29;;;;;;;2.92;1.60;;;19.10;77.10;;;;;;4937980;29;20189;-70
2022/05/21 09:13:20;;;;;;;4.15;1.77;;;19.10;75.70;;;;;;4935798;29;20213;-70
2022/05/21 09:18:33;;;;;;;3.55;1.20;;;19.30;78.80;;;;;;4941115;29;20264;-71
2022/05/21 09:21:01;;;;;;;1.48;1.20;;;19.30;76.80;;;;;;4940238;29;20257;-71
2022/05/21 09:23:50;;;;;;;1.55;1.40;;;19.30;76.40;;;;;;4939086;29;20198;-71
2022/05/21 09:26:18;;;;;;;1.63;1.13;;;19.60;74.70;;;;;;4937825;29;20166;-70
2022/05/21 09:28:44;;;;;;;2.67;1.25;;;19.70;73.60;;;;;;4939032;29;20208;-71
2022/05/21 09:31:11;;;;;;;2.42;1.33;;;19.40;72.60;;;;;;4938427;29;20182;-71
2022/05/21 09:33:43;;;;;;;2.05;1.33;;;19.20;74.60;;;;;;4938563;29;20218;-71
2022/05/21 09:36:34;;;;;;;5.13;1.73;;;19.10;73.60;;;;;;4940460;29;20557;-71
2022/05/21 09:38:59;;;;;;;2.47;1.30;;;19.30;73.70;;;;;;4939915;29;20225;-70
2022/05/21 09:41:28;;;;;;;7.30;1.50;;;19.60;74.60;;;;;;4937519;29;20181;-72
2022/05/21 09:47:15;;;;;;;3.38;1.50;;;19.70;73.00;;;;;;4940818;29;20166;-71
2022/05/21 09:49:42;;;;;;;3.05;1.40;;;19.40;72.80;;;;;;4939384;29;20202;-72
2022/05/21 09:52:36;;;;;;;3.88;1.27;;;19.50;72.60;;;;;;4939152;29;20609;-71
2022/05/21 09:55:04;;;;;;;5.13;1.50;;;19.80;73.70;;;;;;4935276;29;20249;-71
2022/05/21 09:57:44;;;;;;;3.45;1.45;;;19.80;71.90;;;;;;4936483;29;20206;-71
2022/05/21 10:00:21;;;;;;;3.70;1.58;;;19.40;70.80;;;;;;4939084;29;20594;-71
2022/05/21 10:03:30;;;;;;;7.05;1.60;;;19.10;71.60;;;;;;4938116;29;20214;-70
2022/05/21 10:05:56;;;;;;;4.38;1.52;;;18.90;72.80;;;;;;4935693;29;20257;-70
2022/05/21 10:11:23;;;;;;;1.98;1.40;;;18.80;74.40;;;;;;4935262;29;20170;-70
2022/05/21 10:14:11;;;;;;;3.63;1.40;;;19.00;74.70;;;;;;4934856;29;20202;-70
2022/05/21 10:16:40;;;;;;;2.70;1.45;;;19.50;74.90;;;;;;4936039;29;20166;-70
2022/05/21 10:19:42;;;;;;;3.38;1.45;;;19.90;73.70;;;;;;4936180;29;20281;-70
2022/05/21 10:22:19;;;;;;;4.30;1.60;;;20.50;71.30;;;;;;4915079;29;20213;-70
2022/05/21 10:24:57;;;;;;;1.58;1.02;;;20.70;68.80;;;;;;4937778;29;20166;-70
2022/05/21 10:28:04;;;;;;;3.00;1.27;;;20.70;67.70;;;;;;4939764;29;20178;-70
2022/05/21 10:30:47;;;;;;;5.57;1.50;;;20.80;65.60;;;;;;4911045;29;20186;-70
2022/05/21 10:33:34;;;;;;;2.40;1.23;;;20.50;64.40;;;;;;4938440;29;20689;-70
2022/05/21 10:36:13;;;;;;;2.33;1.20;;;20.50;65.70;;;;;;4938733;29;20178;-70
2022/05/21 10:38:39;;;;;;;2.70;1.42;;;20.70;66.70;;;;;;4938616;29;20233;-70
2022/05/21 10:41:19;;;;;;;5.40;1.35;;;20.90;65.70;;;;;;4938775;29;20182;-70
2022/05/21 10:44:03;;;;;;;5.18;1.30;;;21.20;64.20;;;;;;4938624;29;20205;-70
2022/05/21 10:46:51;;;;;;;3.53;1.30;;;21.00;60.60;;;;;;4938437;29;20181;-70
2022/05/21 10:49:40;;;;;;;2.72;1.52;;;20.90;62.70;;;;;;4939599;29;20167;-70
2022/05/21 10:52:16;;;;;;;6.18;1.38;;;20.80;63.60;;;;;;4938002;29;20205;-70
2022/05/21 10:55:16;;;;;;;9.48;1.77;;;20.40;65.50;;;;;;4938091;29;20662;-72
2022/05/21 10:58:25;;;;;;;2.20;1.45;;;20.60;67.00;;;;;;4937915;29;20201;-70
2022/05/21 11:01:15;;;;;;;4.78;1.42;;;21.00;63.70;;;;;;4939325;29;20257;-71
2022/05/21 11:04:10;;;;;;;2.17;1.30;;;20.70;62.90;;;;;;4939280;29;20233;-70
2022/05/21 11:07:13;;;;;;;3.00;1.30;;;20.50;61.70;;;;;;4939046;29;20254;-71
2022/05/21 11:10:06;;;;;;;3.90;1.40;;;20.10;62.70;;;;;;4939301;29;20193;-71
2022/05/21 11:12:52;;;;;;;5.05;1.67;;;19.90;64.60;;;;;;4939071;29;20198;-71
2022/05/21 11:15:39;;;;;;;5.40;1.30;;;20.10;65.10;;;;;;4940294;29;20166;-71
2022/05/21 11:18:20;;;;;;;4.82;1.70;;;19.90;65.00;;;;;;4939534;29;20338;-72
2022/05/21 11:21:14;;;;;;;6.47;1.50;;;19.80;64.70;;;;;;4939352;29;20162;-71
2022/05/21 11:24:03;;;;;;;6.75;1.30;;;19.90;64.40;;;;;;4940678;29;20202;-72
2022/05/21 11:27:00;;;;;;;4.70;1.20;;;19.50;63.70;;;;;;4939618;29;20178;-72
2022/05/21 11:29:58;;;;;;;5.28;1.75;;;19.60;66.10;;;;;;4938141;29;20638;-79
2022/05/21 11:38:24;;;;;;;3.40;1.63;;;19.60;62.70;;;;;;4941971;29;20835;-72
2022/05/21 11:47:14;;;;;;;3.50;1.40;;;20.50;62.20;;;;;;4940547;29;20201;-71
2022/05/21 11:49:51;;;;;;;2.13;1.20;;;20.90;59.60;;;;;;4938101;29;20189;-71
2022/05/21 11:52:32;;;;;;;3.50;1.25;;;21.10;60.30;;;;;;4938967;29;20257;-71
2022/05/21 11:54:57;;;;;;;4.63;1.50;;;21.20;60.00;;;;;;4938310;29;20200;-71
2022/05/21 12:00:47;;;;;;;2.15;1.20;;;21.10;59.70;;;;;;4938359;29;20170;-70
2022/05/21 12:03:15;;;;;;;3.58;1.60;;;21.10;58.70;;;;;;4937125;29;20342;-70
2022/05/21 12:05:41;;;;;;;2.63;1.50;;;20.80;60.70;;;;;;4936888;29;20229;-70
2022/05/21 12:08:43;;;;;;;5.25;1.38;;;20.20;60.60;;;;;;4937052;29;20186;-70
2022/05/21 12:11:27;;;;;;;2.72;1.38;;;19.50;62.10;;;;;;4936676;29;20178;-70
2022/05/21 12:14:05;;;;;;;2.97;1.30;;;19.30;64.80;;;;;;4936531;29;20257;-70
2022/05/21 12:17:27;;;;;;;3.78;1.42;;;18.90;66.20;;;;;;4937295;29;20202;-70
2022/05/21 12:19:53;;;;;;;3.50;1.30;;;19.20;68.50;;;;;;4936259;29;20563;-70
2022/05/21 12:22:54;;;;;;;5.38;1.52;;;19.60;66.50;;;;;;4936434;29;20208;-70
2022/05/21 12:25:40;;;;;;;4.88;1.60;;;19.90;64.00;;;;;;4897980;29;20187;-79
2022/05/21 12:28:08;;;;;;;3.35;1.20;;;20.10;65.20;;;;;;4935403;29;20721;-70
2022/05/21 12:34:12;;;;;;;4.25;1.33;;;20.60;60.00;;;;;;4937386;29;20201;-70
2022/05/21 12:36:50;;;;;;;3.55;1.30;;;20.50;60.60;;;;;;4936980;29;20170;-70
2022/05/21 12:39:21;;;;;;;5.93;1.60;;;20.20;60.10;;;;;;4936139;29;20210;-70
2022/05/21 12:41:58;;;;;;;2.67;1.30;;;20.30;62.70;;;;;;4936122;29;20213;-70
2022/05/21 12:44:39;;;;;;;5.05;1.23;;;20.80;61.50;;;;;;4936981;29;20166;-72
2022/05/21 12:47:06;;;;;;;8.05;1.50;;;21.10;58.60;;;;;;4935963;29;20182;-71
2022/05/21 12:49:33;;;;;;;2.45;1.40;;;20.70;56.80;;;;;;4936085;29;20175;-76
2022/05/21 12:51:59;;;;;;;4.85;1.25;;;20.20;58.80;;;;;;4935813;29;20189;-70
2022/05/21 12:54:33;;;;;;;6.70;1.42;;;20.20;61.70;;;;;;4936481;29;20570;-72
2022/05/21 12:57:11;;;;;;;2.85;1.30;;;20.30;59.90;;;;;;4936745;29;20204;-71
2022/05/21 13:00:06;;;;;;;2.42;1.13;;;20.40;59.30;;;;;;4936275;29;20229;-72
2022/05/21 13:02:44;;;;;;;2.58;1.40;;;20.30;57.70;;;;;;4936467;29;20542;-72
2022/05/21 13:06:09;;;;;;;3.67;1.38;;;20.30;58.70;;;;;;4936907;29;20630;-70
2022/05/21 13:08:38;;;;;;;4.55;1.60;;;20.20;58.40;;;;;;4935623;29;20171;-70
2022/05/21 13:11:20;;;;;;;5.57;1.55;;;19.80;58.10;;;;;;4935436;29;20214;-70
2022/05/21 13:13:57;;;;;;;3.20;1.48;;;19.70;59.00;;;;;;4935334;29;20289;-70
2022/05/21 13:16:23;;;;;;;4.07;1.40;;;19.70;59.30;;;;;;4935488;29;20716;-70
2022/05/21 13:19:43;;;;;;;2.65;1.40;;;20.20;62.50;;;;;;4935385;29;20209;-70
2022/05/21 13:22:44;;;;;;;3.15;1.27;;;20.80;59.70;;;;;;4936186;29;20221;-70
2022/05/21 13:25:12;;;;;;;4.22;1.33;;;21.20;56.80;;;;;;4935203;29;20185;-70
2022/05/21 13:27:50;;;;;;;2.83;1.40;;;21.40;56.10;;;;;;4935643;29;20178;-71
2022/05/21 13:30:20;;;;;;;6.00;1.50;;;21.40;57.00;;;;;;4935383;29;20641;-70
2022/05/21 13:33:41;;;;;;;3.03;1.30;;;21.10;57.90;;;;;;4936646;29;20253;-70
2022/05/21 13:36:13;;;;;;;5.10;1.52;;;21.20;57.50;;;;;;4936928;29;20178;-70
2022/05/21 13:38:40;;;;;;;4.28;1.50;;;21.30;55.90;;;;;;4935850;29;20238;-71
2022/05/21 13:41:13;;;;;;;5.05;1.52;;;21.70;56.50;;;;;;4935181;29;20178;-70
2022/05/21 13:43:46;;;;;;;2.47;1.27;;;21.40;55.80;;;;;;4935425;29;20238;-70
2022/05/21 13:46:13;;;;;;;3.58;1.50;;;21.40;56.80;;;;;;4935965;29;20177;-70
2022/05/21 13:48:53;;;;;;;4.15;1.60;;;21.20;57.30;;;;;;4934952;29;20665;-70
2022/05/21 13:51:22;;;;;;;2.15;1.60;;;21.10;59.70;;;;;;4935147;29;20273;-70
2022/05/21 13:53:51;;;;;;;2.53;1.40;;;21.00;60.20;;;;;;4935278;29;20277;-70
2022/05/21 13:56:37;;;;;;;2.35;1.48;;;20.60;57.80;;;;;;4934975;29;20186;-70
2022/05/21 13:59:07;;;;;;;8.65;1.70;;;20.30;60.40;;;;;;4935547;29;20295;-70
2022/05/21 14:01:35;;;;;;;5.88;1.55;;;20.10;60.90;;;;;;4934974;29;20264;-70
2022/05/21 14:04:07;;;;;;;2.03;1.35;;;19.80;59.90;;;;;;4935156;29;20202;-69
2022/05/21 14:06:39;;;;;;;2.65;1.20;;;19.60;62.80;;;;;;4938065;29;20182;-71